sensor_id;sensor_type;location;lat;lon;timestamp;P1;durP1;ratioP1;P2;durP2;ratioP2
14292;SDS011;62290;59.420;17.842;2024-03-17T00:01:02;0.20;;;0.20;;
14292;SDS011;62290;59.420;17.842;2024-03-17T00:03:30;0.40;;;0.32;;
14292;SDS011;62290;59.420;17.842;2024-03-17T00:05:56;0.25;;;0.20;;
14292;SDS011;62290;59.420;17.842;2024-03-17T00:08:25;0.13;;;0.10;;
14292;SDS011;62290;59.420;17.842;2024-03-17T00:10:52;0.45;;;0.30;;
14292;SDS011;62290;59.420;17.842;2024-03-17T00:13:20;0.85;;;0.13;;
14292;SDS011;62290;59.420;17.842;2024-03-17T00:15:47;0.63;;;0.22;;
14292;SDS011;62290;59.420;17.842;2024-03-17T00:18:14;0.45;;;0.30;;
14292;SDS011;62290;59.420;17.842;2024-03-17T00:20:40;0.25;;;0.20;;
14292;SDS011;62290;59.420;17.842;2024-03-17T00:23:08;0.45;;;0.20;;
14292;SDS011;62290;59.420;17.842;2024-03-17T00:25:38;0.73;;;0.20;;
14292;SDS011;62290;59.420;17.842;2024-03-17T00:28:05;0.15;;;0.15;;
14292;SDS011;62290;59.420;17.842;2024-03-17T00:30:31;0.32;;;0.20;;
14292;SDS011;62290;59.420;17.842;2024-03-17T00:32:58;0.75;;;0.73;;
14292;SDS011;62290;59.420;17.842;2024-03-17T00:35:25;7.70;;;0.45;;
14292;SDS011;62290;59.420;17.842;2024-03-17T00:37:52;1.23;;;0.40;;
14292;SDS011;62290;59.420;17.842;2024-03-17T00:40:19;0.32;;;0.30;;
14292;SDS011;62290;59.420;17.842;2024-03-17T00:42:47;0.32;;;0.20;;
14292;SDS011;62290;59.420;17.842;2024-03-17T00:45:15;0.25;;;0.20;;
14292;SDS011;62290;59.420;17.842;2024-03-17T00:47:42;2.60;;;0.40;;
14292;SDS011;62290;59.420;17.842;2024-03-17T00:50:09;1.25;;;0.30;;
14292;SDS011;62290;59.420;17.842;2024-03-17T00:52:37;0.63;;;0.30;;
14292;SDS011;62290;59.420;17.842;2024-03-17T00:55:03;0.25;;;0.10;;
14292;SDS011;62290;59.420;17.842;2024-03-17T00:57:30;0.13;;;0.10;;
14292;SDS011;62290;59.420;17.842;2024-03-17T00:59:58;0.40;;;0.20;;
14292;SDS011;62290;59.420;17.842;2024-03-17T01:02:25;0.40;;;0.17;;
14292;SDS011;62290;59.420;17.842;2024-03-17T01:04:51;1.25;;;0.50;;
14292;SDS011;62290;59.420;17.842;2024-03-17T01:07:18;0.45;;;0.20;;
14292;SDS011;62290;59.420;17.842;2024-03-17T01:09:44;1.15;;;0.22;;
14292;SDS011;62290;59.420;17.842;2024-03-17T01:12:13;4.18;;;0.50;;
14292;SDS011;62290;59.420;17.842;2024-03-17T01:14:39;1.05;;;0.40;;
14292;SDS011;62290;59.420;17.842;2024-03-17T01:17:08;3.40;;;0.75;;
14292;SDS011;62290;59.420;17.842;2024-03-17T01:19:34;6.53;;;0.55;;
14292;SDS011;62290;59.420;17.842;2024-03-17T01:22:01;1.67;;;0.32;;
14292;SDS011;62290;59.420;17.842;2024-03-17T01:24:27;2.85;;;0.30;;
14292;SDS011;62290;59.420;17.842;2024-03-17T01:26:57;0.30;;;0.30;;
14292;SDS011;62290;59.420;17.842;2024-03-17T01:29:23;0.20;;;0.10;;
14292;SDS011;62290;59.420;17.842;2024-03-17T01:31:50;4.63;;;0.30;;
14292;SDS011;62290;59.420;17.842;2024-03-17T01:34:17;2.65;;;0.63;;
14292;SDS011;62290;59.420;17.842;2024-03-17T01:36:45;2.00;;;0.40;;
14292;SDS011;62290;59.420;17.842;2024-03-17T01:39:11;0.75;;;0.32;;
14292;SDS011;62290;59.420;17.842;2024-03-17T01:41:38;2.85;;;0.47;;
14292;SDS011;62290;59.420;17.842;2024-03-17T01:44:04;0.20;;;0.10;;
14292;SDS011;62290;59.420;17.842;2024-03-17T01:46:32;1.35;;;0.40;;
14292;SDS011;62290;59.420;17.842;2024-03-17T01:48:59;0.80;;;0.22;;
14292;SDS011;62290;59.420;17.842;2024-03-17T01:51:27;0.40;;;0.30;;
14292;SDS011;62290;59.420;17.842;2024-03-17T01:53:53;0.20;;;0.20;;
14292;SDS011;62290;59.420;17.842;2024-03-17T01:56:22;0.35;;;0.30;;
14292;SDS011;62290;59.420;17.842;2024-03-17T01:58:49;0.63;;;0.30;;
14292;SDS011;62290;59.420;17.842;2024-03-17T02:01:16;0.45;;;0.30;;
14292;SDS011;62290;59.420;17.842;2024-03-17T02:03:43;0.20;;;0.10;;
14292;SDS011;62290;59.420;17.842;2024-03-17T02:06:09;0.52;;;0.20;;
14292;SDS011;62290;59.420;17.842;2024-03-17T02:08:50;0.17;;;0.17;;
14292;SDS011;62290;59.420;17.842;2024-03-17T02:11:24;0.63;;;0.30;;
14292;SDS011;62290;59.420;17.842;2024-03-17T02:13:53;1.55;;;0.30;;
14292;SDS011;62290;59.420;17.842;2024-03-17T02:16:21;0.30;;;0.22;;
14292;SDS011;62290;59.420;17.842;2024-03-17T02:18:47;0.52;;;0.10;;
14292;SDS011;62290;59.420;17.842;2024-03-17T02:21:14;0.80;;;0.20;;
14292;SDS011;62290;59.420;17.842;2024-03-17T02:23:42;0.80;;;0.20;;
14292;SDS011;62290;59.420;17.842;2024-03-17T02:26:10;0.88;;;0.30;;
14292;SDS011;62290;59.420;17.842;2024-03-17T02:28:39;0.30;;;0.20;;
14292;SDS011;62290;59.420;17.842;2024-03-17T02:31:07;0.38;;;0.20;;
14292;SDS011;62290;59.420;17.842;2024-03-17T02:33:34;0.80;;;0.45;;
14292;SDS011;62290;59.420;17.842;2024-03-17T02:36:01;0.50;;;0.30;;
14292;SDS011;62290;59.420;17.842;2024-03-17T02:38:29;0.50;;;0.40;;
14292;SDS011;62290;59.420;17.842;2024-03-17T02:41:17;0.50;;;0.38;;
14292;SDS011;62290;59.420;17.842;2024-03-17T02:43:44;0.30;;;0.20;;
14292;SDS011;62290;59.420;17.842;2024-03-17T02:46:12;1.80;;;0.20;;
14292;SDS011;62290;59.420;17.842;2024-03-17T02:48:39;0.45;;;0.32;;
14292;SDS011;62290;59.420;17.842;2024-03-17T02:51:10;0.63;;;0.20;;
14292;SDS011;62290;59.420;17.842;2024-03-17T02:53:40;0.32;;;0.20;;
14292;SDS011;62290;59.420;17.842;2024-03-17T02:56:07;3.85;;;0.30;;
14292;SDS011;62290;59.420;17.842;2024-03-17T02:58:35;1.08;;;0.28;;
14292;SDS011;62290;59.420;17.842;2024-03-17T03:01:03;0.60;;;0.25;;
14292;SDS011;62290;59.420;17.842;2024-03-17T03:03:31;0.40;;;0.20;;
14292;SDS011;62290;59.420;17.842;2024-03-17T03:05:58;0.65;;;0.40;;
14292;SDS011;62290;59.420;17.842;2024-03-17T03:08:26;0.30;;;0.20;;
14292;SDS011;62290;59.420;17.842;2024-03-17T03:10:53;0.55;;;0.22;;
14292;SDS011;62290;59.420;17.842;2024-03-17T03:13:20;1.98;;;0.30;;
14292;SDS011;62290;59.420;17.842;2024-03-17T03:15:49;0.40;;;0.30;;
14292;SDS011;62290;59.420;17.842;2024-03-17T03:18:15;0.65;;;0.30;;
14292;SDS011;62290;59.420;17.842;2024-03-17T03:20:42;0.10;;;0.10;;
14292;SDS011;62290;59.420;17.842;2024-03-17T03:23:10;1.60;;;0.50;;
14292;SDS011;62290;59.420;17.842;2024-03-17T03:25:37;0.70;;;0.40;;
14292;SDS011;62290;59.420;17.842;2024-03-17T03:28:04;4.68;;;0.30;;
14292;SDS011;62290;59.420;17.842;2024-03-17T03:30:35;0.32;;;0.28;;
14292;SDS011;62290;59.420;17.842;2024-03-17T03:33:03;0.90;;;0.20;;
14292;SDS011;62290;59.420;17.842;2024-03-17T03:35:31;1.17;;;0.20;;
14292;SDS011;62290;59.420;17.842;2024-03-17T03:37:58;0.85;;;0.32;;
14292;SDS011;62290;59.420;17.842;2024-03-17T03:40:26;0.32;;;0.30;;
14292;SDS011;62290;59.420;17.842;2024-03-17T03:42:53;1.40;;;0.40;;
14292;SDS011;62290;59.420;17.842;2024-03-17T03:45:20;1.15;;;0.28;;
14292;SDS011;62290;59.420;17.842;2024-03-17T03:47:47;0.90;;;0.30;;
14292;SDS011;62290;59.420;17.842;2024-03-17T03:50:17;0.50;;;0.30;;
14292;SDS011;62290;59.420;17.842;2024-03-17T03:52:45;1.10;;;0.30;;
14292;SDS011;62290;59.420;17.842;2024-03-17T03:55:14;0.43;;;0.35;;
14292;SDS011;62290;59.420;17.842;2024-03-17T03:57:42;0.32;;;0.20;;
14292;SDS011;62290;59.420;17.842;2024-03-17T04:00:12;0.82;;;0.20;;
14292;SDS011;62290;59.420;17.842;2024-03-17T04:02:40;1.10;;;0.40;;
14292;SDS011;62290;59.420;17.842;2024-03-17T04:05:08;0.75;;;0.30;;
14292;SDS011;62290;59.420;17.842;2024-03-17T04:07:37;1.00;;;0.30;;
14292;SDS011;62290;59.420;17.842;2024-03-17T04:10:05;0.50;;;0.50;;
14292;SDS011;62290;59.420;17.842;2024-03-17T04:12:33;2.17;;;0.50;;
14292;SDS011;62290;59.420;17.842;2024-03-17T04:15:00;5.78;;;0.50;;
14292;SDS011;62290;59.420;17.842;2024-03-17T04:17:27;1.15;;;0.40;;
14292;SDS011;62290;59.420;17.842;2024-03-17T04:19:54;0.30;;;0.20;;
14292;SDS011;62290;59.420;17.842;2024-03-17T04:22:22;1.40;;;0.65;;
14292;SDS011;62290;59.420;17.842;2024-03-17T04:24:51;0.20;;;0.20;;
14292;SDS011;62290;59.420;17.842;2024-03-17T04:27:19;0.70;;;0.30;;
14292;SDS011;62290;59.420;17.842;2024-03-17T04:29:46;2.17;;;0.45;;
14292;SDS011;62290;59.420;17.842;2024-03-17T04:32:13;1.83;;;0.50;;
14292;SDS011;62290;59.420;17.842;2024-03-17T04:34:40;0.73;;;0.32;;
14292;SDS011;62290;59.420;17.842;2024-03-17T04:37:09;0.70;;;0.32;;
14292;SDS011;62290;59.420;17.842;2024-03-17T04:39:37;1.23;;;0.40;;
14292;SDS011;62290;59.420;17.842;2024-03-17T04:42:06;1.10;;;0.30;;
14292;SDS011;62290;59.420;17.842;2024-03-17T04:44:32;1.13;;;0.40;;
14292;SDS011;62290;59.420;17.842;2024-03-17T04:46:59;0.32;;;0.25;;
14292;SDS011;62290;59.420;17.842;2024-03-17T04:49:26;1.83;;;0.32;;
14292;SDS011;62290;59.420;17.842;2024-03-17T04:51:53;0.38;;;0.28;;
14292;SDS011;62290;59.420;17.842;2024-03-17T04:54:20;1.02;;;0.40;;
14292;SDS011;62290;59.420;17.842;2024-03-17T04:56:47;0.80;;;0.40;;
14292;SDS011;62290;59.420;17.842;2024-03-17T04:59:16;1.75;;;0.73;;
14292;SDS011;62290;59.420;17.842;2024-03-17T05:01:43;1.92;;;0.50;;
14292;SDS011;62290;59.420;17.842;2024-03-17T05:04:10;1.90;;;0.38;;
14292;SDS011;62290;59.420;17.842;2024-03-17T05:06:37;2.42;;;0.40;;
14292;SDS011;62290;59.420;17.842;2024-03-17T05:09:07;4.18;;;0.40;;
14292;SDS011;62290;59.420;17.842;2024-03-17T05:11:34;1.67;;;0.43;;
14292;SDS011;62290;59.420;17.842;2024-03-17T05:14:03;0.70;;;0.40;;
14292;SDS011;62290;59.420;17.842;2024-03-17T05:16:31;2.45;;;0.52;;
14292;SDS011;62290;59.420;17.842;2024-03-17T05:18:59;0.88;;;0.50;;
14292;SDS011;62290;59.420;17.842;2024-03-17T05:21:26;1.05;;;0.55;;
14292;SDS011;62290;59.420;17.842;2024-03-17T05:23:55;1.92;;;0.32;;
14292;SDS011;62290;59.420;17.842;2024-03-17T05:26:23;0.32;;;0.30;;
14292;SDS011;62290;59.420;17.842;2024-03-17T05:28:51;1.63;;;0.82;;
14292;SDS011;62290;59.420;17.842;2024-03-17T05:31:18;0.70;;;0.50;;
14292;SDS011;62290;59.420;17.842;2024-03-17T05:33:48;1.27;;;0.35;;
14292;SDS011;62290;59.420;17.842;2024-03-17T05:36:17;0.98;;;0.40;;
14292;SDS011;62290;59.420;17.842;2024-03-17T05:38:45;2.35;;;0.60;;
14292;SDS011;62290;59.420;17.842;2024-03-17T05:41:13;1.48;;;0.30;;
14292;SDS011;62290;59.420;17.842;2024-03-17T05:43:40;3.05;;;0.77;;
14292;SDS011;62290;59.420;17.842;2024-03-17T05:46:08;3.15;;;0.70;;
14292;SDS011;62290;59.420;17.842;2024-03-17T05:48:36;1.13;;;0.28;;
14292;SDS011;62290;59.420;17.842;2024-03-17T05:51:06;0.70;;;0.30;;
14292;SDS011;62290;59.420;17.842;2024-03-17T05:53:33;1.80;;;0.45;;
14292;SDS011;62290;59.420;17.842;2024-03-17T05:56:01;1.08;;;0.43;;
14292;SDS011;62290;59.420;17.842;2024-03-17T05:58:27;2.38;;;0.70;;
14292;SDS011;62290;59.420;17.842;2024-03-17T06:00:54;1.95;;;0.68;;
14292;SDS011;62290;59.420;17.842;2024-03-17T06:03:22;1.25;;;0.45;;
14292;SDS011;62290;59.420;17.842;2024-03-17T06:05:49;1.15;;;0.50;;
14292;SDS011;62290;59.420;17.842;2024-03-17T06:08:17;1.42;;;0.50;;
14292;SDS011;62290;59.420;17.842;2024-03-17T06:10:45;2.47;;;0.40;;
14292;SDS011;62290;59.420;17.842;2024-03-17T06:13:13;1.60;;;0.75;;
14292;SDS011;62290;59.420;17.842;2024-03-17T06:15:42;0.88;;;0.40;;
14292;SDS011;62290;59.420;17.842;2024-03-17T06:18:11;1.10;;;0.63;;
14292;SDS011;62290;59.420;17.842;2024-03-17T06:20:39;1.65;;;0.50;;
14292;SDS011;62290;59.420;17.842;2024-03-17T06:23:08;2.38;;;0.40;;
14292;SDS011;62290;59.420;17.842;2024-03-17T06:25:41;0.75;;;0.35;;
14292;SDS011;62290;59.420;17.842;2024-03-17T06:28:09;2.15;;;0.60;;
14292;SDS011;62290;59.420;17.842;2024-03-17T06:30:39;1.73;;;0.60;;
14292;SDS011;62290;59.420;17.842;2024-03-17T06:33:06;2.92;;;0.47;;
14292;SDS011;62290;59.420;17.842;2024-03-17T06:35:35;0.90;;;0.40;;
14292;SDS011;62290;59.420;17.842;2024-03-17T06:38:03;1.42;;;0.40;;
14292;SDS011;62290;59.420;17.842;2024-03-17T06:40:30;2.28;;;0.70;;
14292;SDS011;62290;59.420;17.842;2024-03-17T06:42:58;0.38;;;0.30;;
14292;SDS011;62290;59.420;17.842;2024-03-17T06:45:26;1.15;;;0.60;;
14292;SDS011;62290;59.420;17.842;2024-03-17T06:47:52;1.17;;;0.50;;
14292;SDS011;62290;59.420;17.842;2024-03-17T06:50:20;0.55;;;0.30;;
14292;SDS011;62290;59.420;17.842;2024-03-17T06:52:47;0.55;;;0.30;;
14292;SDS011;62290;59.420;17.842;2024-03-17T06:55:14;0.90;;;0.40;;
14292;SDS011;62290;59.420;17.842;2024-03-17T06:57:42;0.90;;;0.40;;
14292;SDS011;62290;59.420;17.842;2024-03-17T07:00:12;2.13;;;0.40;;
14292;SDS011;62290;59.420;17.842;2024-03-17T07:02:42;1.50;;;0.52;;
14292;SDS011;62290;59.420;17.842;2024-03-17T07:05:11;2.03;;;0.57;;
14292;SDS011;62290;59.420;17.842;2024-03-17T07:07:40;2.78;;;0.55;;
14292;SDS011;62290;59.420;17.842;2024-03-17T07:10:08;0.88;;;0.32;;
14292;SDS011;62290;59.420;17.842;2024-03-17T07:12:36;2.45;;;0.47;;
14292;SDS011;62290;59.420;17.842;2024-03-17T07:15:04;2.67;;;0.90;;
14292;SDS011;62290;59.420;17.842;2024-03-17T07:17:33;1.65;;;0.40;;
14292;SDS011;62290;59.420;17.842;2024-03-17T07:20:00;1.42;;;0.50;;
14292;SDS011;62290;59.420;17.842;2024-03-17T07:22:28;1.13;;;0.50;;
14292;SDS011;62290;59.420;17.842;2024-03-17T07:24:55;1.08;;;0.55;;
14292;SDS011;62290;59.420;17.842;2024-03-17T07:27:26;2.63;;;0.70;;
14292;SDS011;62290;59.420;17.842;2024-03-17T07:29:53;1.63;;;0.77;;
14292;SDS011;62290;59.420;17.842;2024-03-17T07:32:20;1.65;;;0.50;;
14292;SDS011;62290;59.420;17.842;2024-03-17T07:34:49;1.80;;;0.70;;
14292;SDS011;62290;59.420;17.842;2024-03-17T07:37:16;1.58;;;0.52;;
14292;SDS011;62290;59.420;17.842;2024-03-17T07:39:43;1.17;;;0.55;;
14292;SDS011;62290;59.420;17.842;2024-03-17T07:42:10;1.48;;;0.70;;
14292;SDS011;62290;59.420;17.842;2024-03-17T07:44:38;1.42;;;0.40;;
14292;SDS011;62290;59.420;17.842;2024-03-17T07:47:05;1.63;;;0.65;;
14292;SDS011;62290;59.420;17.842;2024-03-17T07:49:33;2.72;;;0.60;;
14292;SDS011;62290;59.420;17.842;2024-03-17T07:52:01;0.40;;;0.30;;
14292;SDS011;62290;59.420;17.842;2024-03-17T07:54:28;2.85;;;0.63;;
14292;SDS011;62290;59.420;17.842;2024-03-17T07:56:55;1.70;;;0.82;;
14292;SDS011;62290;59.420;17.842;2024-03-17T07:59:22;1.50;;;0.50;;
14292;SDS011;62290;59.420;17.842;2024-03-17T08:01:49;1.13;;;0.40;;
14292;SDS011;62290;59.420;17.842;2024-03-17T08:04:16;1.52;;;0.60;;
14292;SDS011;62290;59.420;17.842;2024-03-17T08:06:43;1.08;;;0.38;;
14292;SDS011;62290;59.420;17.842;2024-03-17T08:09:12;1.42;;;0.63;;
14292;SDS011;62290;59.420;17.842;2024-03-17T08:11:39;0.85;;;0.57;;
14292;SDS011;62290;59.420;17.842;2024-03-17T08:14:11;1.35;;;0.50;;
14292;SDS011;62290;59.420;17.842;2024-03-17T08:16:40;3.05;;;0.65;;
14292;SDS011;62290;59.420;17.842;2024-03-17T08:19:07;1.45;;;0.50;;
14292;SDS011;62290;59.420;17.842;2024-03-17T08:21:34;5.60;;;0.63;;
14292;SDS011;62290;59.420;17.842;2024-03-17T08:24:01;1.23;;;0.50;;
14292;SDS011;62290;59.420;17.842;2024-03-17T08:26:29;2.00;;;0.70;;
14292;SDS011;62290;59.420;17.842;2024-03-17T08:28:56;1.40;;;0.60;;
14292;SDS011;62290;59.420;17.842;2024-03-17T08:31:24;1.40;;;0.60;;
14292;SDS011;62290;59.420;17.842;2024-03-17T08:33:51;2.55;;;0.50;;
14292;SDS011;62290;59.420;17.842;2024-03-17T08:36:18;1.48;;;0.43;;
14292;SDS011;62290;59.420;17.842;2024-03-17T08:38:46;2.60;;;0.70;;
14292;SDS011;62290;59.420;17.842;2024-03-17T08:41:14;1.55;;;0.55;;
14292;SDS011;62290;59.420;17.842;2024-03-17T08:43:43;1.60;;;0.50;;
14292;SDS011;62290;59.420;17.842;2024-03-17T08:46:10;1.00;;;0.40;;
14292;SDS011;62290;59.420;17.842;2024-03-17T08:48:39;2.35;;;0.70;;
14292;SDS011;62290;59.420;17.842;2024-03-17T08:51:08;2.55;;;0.60;;
14292;SDS011;62290;59.420;17.842;2024-03-17T08:53:36;1.95;;;0.60;;
14292;SDS011;62290;59.420;17.842;2024-03-17T08:56:04;3.03;;;0.70;;
14292;SDS011;62290;59.420;17.842;2024-03-17T08:58:33;1.42;;;0.40;;
14292;SDS011;62290;59.420;17.842;2024-03-17T09:01:05;1.50;;;0.60;;
14292;SDS011;62290;59.420;17.842;2024-03-17T09:03:33;2.70;;;0.60;;
14292;SDS011;62290;59.420;17.842;2024-03-17T09:06:01;0.82;;;0.35;;
14292;SDS011;62290;59.420;17.842;2024-03-17T09:08:28;2.13;;;0.75;;
14292;SDS011;62290;59.420;17.842;2024-03-17T09:10:55;0.68;;;0.52;;
14292;SDS011;62290;59.420;17.842;2024-03-17T09:13:22;1.15;;;0.40;;
14292;SDS011;62290;59.420;17.842;2024-03-17T09:15:52;1.73;;;0.40;;
14292;SDS011;62290;59.420;17.842;2024-03-17T09:18:21;1.92;;;0.47;;
14292;SDS011;62290;59.420;17.842;2024-03-17T09:20:55;2.25;;;0.50;;
14292;SDS011;62290;59.420;17.842;2024-03-17T09:23:23;1.55;;;0.60;;
14292;SDS011;62290;59.420;17.842;2024-03-17T09:25:55;2.50;;;0.60;;
14292;SDS011;62290;59.420;17.842;2024-03-17T09:28:23;1.23;;;0.40;;
14292;SDS011;62290;59.420;17.842;2024-03-17T09:30:50;1.80;;;0.50;;
14292;SDS011;62290;59.420;17.842;2024-03-17T09:33:18;1.40;;;0.60;;
14292;SDS011;62290;59.420;17.842;2024-03-17T09:35:53;0.90;;;0.45;;
14292;SDS011;62290;59.420;17.842;2024-03-17T09:38:21;1.85;;;0.50;;
14292;SDS011;62290;59.420;17.842;2024-03-17T09:40:49;1.75;;;0.70;;
14292;SDS011;62290;59.420;17.842;2024-03-17T09:43:18;0.82;;;0.45;;
14292;SDS011;62290;59.420;17.842;2024-03-17T09:45:46;2.03;;;0.60;;
14292;SDS011;62290;59.420;17.842;2024-03-17T09:48:14;1.00;;;0.60;;
14292;SDS011;62290;59.420;17.842;2024-03-17T09:50:44;3.50;;;0.40;;
14292;SDS011;62290;59.420;17.842;2024-03-17T09:53:22;2.05;;;0.50;;
14292;SDS011;62290;59.420;17.842;2024-03-17T09:55:50;1.15;;;0.60;;
14292;SDS011;62290;59.420;17.842;2024-03-17T09:58:18;3.60;;;0.50;;
14292;SDS011;62290;59.420;17.842;2024-03-17T10:00:46;2.03;;;0.47;;
14292;SDS011;62290;59.420;17.842;2024-03-17T10:03:38;0.73;;;0.43;;
14292;SDS011;62290;59.420;17.842;2024-03-17T10:06:06;2.58;;;0.57;;
14292;SDS011;62290;59.420;17.842;2024-03-17T10:08:34;2.80;;;0.52;;
14292;SDS011;62290;59.420;17.842;2024-03-17T10:11:07;1.05;;;0.40;;
14292;SDS011;62290;59.420;17.842;2024-03-17T10:13:34;1.85;;;0.77;;
14292;SDS011;62290;59.420;17.842;2024-03-17T10:16:01;1.27;;;0.60;;
14292;SDS011;62290;59.420;17.842;2024-03-17T10:18:28;2.60;;;0.45;;
14292;SDS011;62290;59.420;17.842;2024-03-17T10:20:56;1.17;;;0.50;;
14292;SDS011;62290;59.420;17.842;2024-03-17T10:23:24;2.60;;;0.40;;
14292;SDS011;62290;59.420;17.842;2024-03-17T10:25:55;2.35;;;0.40;;
14292;SDS011;62290;59.420;17.842;2024-03-17T10:28:22;0.95;;;0.45;;
14292;SDS011;62290;59.420;17.842;2024-03-17T10:30:58;1.02;;;0.30;;
14292;SDS011;62290;59.420;17.842;2024-03-17T10:33:26;1.20;;;0.50;;
14292;SDS011;62290;59.420;17.842;2024-03-17T10:36:00;2.30;;;0.55;;
14292;SDS011;62290;59.420;17.842;2024-03-17T10:38:28;2.08;;;0.70;;
14292;SDS011;62290;59.420;17.842;2024-03-17T10:40:57;1.80;;;0.75;;
14292;SDS011;62290;59.420;17.842;2024-03-17T10:43:24;2.50;;;0.40;;
14292;SDS011;62290;59.420;17.842;2024-03-17T10:45:51;0.43;;;0.20;;
14292;SDS011;62290;59.420;17.842;2024-03-17T10:48:20;2.38;;;0.57;;
14292;SDS011;62290;59.420;17.842;2024-03-17T10:50:50;1.13;;;0.40;;
14292;SDS011;62290;59.420;17.842;2024-03-17T10:53:21;1.23;;;0.40;;
14292;SDS011;62290;59.420;17.842;2024-03-17T10:55:53;1.08;;;0.40;;
14292;SDS011;62290;59.420;17.842;2024-03-17T10:58:33;0.75;;;0.30;;
14292;SDS011;62290;59.420;17.842;2024-03-17T11:01:01;2.35;;;0.60;;
14292;SDS011;62290;59.420;17.842;2024-03-17T11:03:31;2.15;;;0.60;;
14292;SDS011;62290;59.420;17.842;2024-03-17T11:05:59;2.53;;;0.43;;
14292;SDS011;62290;59.420;17.842;2024-03-17T11:08:29;2.60;;;0.50;;
14292;SDS011;62290;59.420;17.842;2024-03-17T11:10:58;3.15;;;0.60;;
14292;SDS011;62290;59.420;17.842;2024-03-17T11:13:27;1.90;;;0.80;;
14292;SDS011;62290;59.420;17.842;2024-03-17T11:15:56;1.52;;;0.50;;
14292;SDS011;62290;59.420;17.842;2024-03-17T11:21:18;1.67;;;0.80;;
14292;SDS011;62290;59.420;17.842;2024-03-17T11:23:59;1.55;;;0.43;;
14292;SDS011;62290;59.420;17.842;2024-03-17T11:26:29;5.35;;;0.40;;
14292;SDS011;62290;59.420;17.842;2024-03-17T11:28:59;1.23;;;0.40;;
14292;SDS011;62290;59.420;17.842;2024-03-17T11:31:32;5.07;;;1.27;;
14292;SDS011;62290;59.420;17.842;2024-03-17T11:33:59;5.57;;;2.47;;
14292;SDS011;62290;59.420;17.842;2024-03-17T11:36:38;7.82;;;2.47;;
14292;SDS011;62290;59.420;17.842;2024-03-17T11:39:05;5.07;;;2.33;;
14292;SDS011;62290;59.420;17.842;2024-03-17T11:41:36;4.82;;;2.15;;
14292;SDS011;62290;59.420;17.842;2024-03-17T11:44:15;4.38;;;2.00;;
14292;SDS011;62290;59.420;17.842;2024-03-17T11:46:44;3.95;;;1.60;;
14292;SDS011;62290;59.420;17.842;2024-03-17T11:49:16;7.18;;;1.58;;
14292;SDS011;62290;59.420;17.842;2024-03-17T11:51:43;36.97;;;16.55;;
14292;SDS011;62290;59.420;17.842;2024-03-17T11:54:13;27.98;;;12.18;;
14292;SDS011;62290;59.420;17.842;2024-03-17T11:56:44;25.40;;;10.88;;
14292;SDS011;62290;59.420;17.842;2024-03-17T11:59:11;27.77;;;10.60;;
14292;SDS011;62290;59.420;17.842;2024-03-17T12:01:40;16.65;;;7.38;;
14292;SDS011;62290;59.420;17.842;2024-03-17T12:04:07;16.90;;;6.55;;
14292;SDS011;62290;59.420;17.842;2024-03-17T12:06:34;12.35;;;4.43;;
14292;SDS011;62290;59.420;17.842;2024-03-17T12:09:07;11.75;;;3.78;;
14292;SDS011;62290;59.420;17.842;2024-03-17T12:11:35;10.95;;;4.25;;
14292;SDS011;62290;59.420;17.842;2024-03-17T12:14:15;5.97;;;2.85;;
14292;SDS011;62290;59.420;17.842;2024-03-17T12:16:53;6.97;;;3.00;;
14292;SDS011;62290;59.420;17.842;2024-03-17T12:19:22;7.47;;;2.75;;
14292;SDS011;62290;59.420;17.842;2024-03-17T12:21:49;7.53;;;2.20;;
14292;SDS011;62290;59.420;17.842;2024-03-17T12:24:18;7.82;;;2.38;;
14292;SDS011;62290;59.420;17.842;2024-03-17T12:26:45;8.10;;;2.08;;
14292;SDS011;62290;59.420;17.842;2024-03-17T12:29:26;6.60;;;2.00;;
14292;SDS011;62290;59.420;17.842;2024-03-17T12:31:57;10.27;;;1.83;;
14292;SDS011;62290;59.420;17.842;2024-03-17T12:34:25;5.78;;;1.80;;
14292;SDS011;62290;59.420;17.842;2024-03-17T12:36:53;8.93;;;2.08;;
14292;SDS011;62290;59.420;17.842;2024-03-17T12:39:21;6.90;;;1.80;;
14292;SDS011;62290;59.420;17.842;2024-03-17T12:42:00;7.35;;;1.80;;
14292;SDS011;62290;59.420;17.842;2024-03-17T12:44:28;6.43;;;1.85;;
14292;SDS011;62290;59.420;17.842;2024-03-17T12:46:57;4.18;;;1.55;;
14292;SDS011;62290;59.420;17.842;2024-03-17T12:49:26;5.63;;;1.75;;
14292;SDS011;62290;59.420;17.842;2024-03-17T12:51:52;3.78;;;1.52;;
14292;SDS011;62290;59.420;17.842;2024-03-17T12:54:21;2.88;;;1.50;;
14292;SDS011;62290;59.420;17.842;2024-03-17T12:56:48;4.45;;;1.30;;
14292;SDS011;62290;59.420;17.842;2024-03-17T12:59:36;5.30;;;1.30;;
14292;SDS011;62290;59.420;17.842;2024-03-17T13:02:25;4.03;;;1.35;;
14292;SDS011;62290;59.420;17.842;2024-03-17T13:05:06;3.67;;;1.50;;
14292;SDS011;62290;59.420;17.842;2024-03-17T13:07:35;2.67;;;1.25;;
14292;SDS011;62290;59.420;17.842;2024-03-17T13:10:02;4.95;;;1.67;;
14292;SDS011;62290;59.420;17.842;2024-03-17T13:12:29;3.10;;;1.00;;
14292;SDS011;62290;59.420;17.842;2024-03-17T13:14:56;2.58;;;1.13;;
14292;SDS011;62290;59.420;17.842;2024-03-17T13:17:24;4.70;;;1.20;;
14292;SDS011;62290;59.420;17.842;2024-03-17T13:19:54;3.42;;;1.30;;
14292;SDS011;62290;59.420;17.842;2024-03-17T13:22:21;2.65;;;1.10;;
14292;SDS011;62290;59.420;17.842;2024-03-17T13:24:48;1.90;;;0.98;;
14292;SDS011;62290;59.420;17.842;2024-03-17T13:27:14;7.75;;;0.90;;
14292;SDS011;62290;59.420;17.842;2024-03-17T13:29:41;4.28;;;1.00;;
14292;SDS011;62290;59.420;17.842;2024-03-17T13:32:09;2.22;;;1.08;;
14292;SDS011;62290;59.420;17.842;2024-03-17T13:34:38;1.67;;;0.68;;
14292;SDS011;62290;59.420;17.842;2024-03-17T13:37:05;2.00;;;0.80;;
14292;SDS011;62290;59.420;17.842;2024-03-17T13:39:32;2.40;;;0.82;;
14292;SDS011;62290;59.420;17.842;2024-03-17T13:42:00;2.53;;;1.08;;
14292;SDS011;62290;59.420;17.842;2024-03-17T13:44:28;2.25;;;0.80;;
14292;SDS011;62290;59.420;17.842;2024-03-17T13:46:56;2.72;;;0.98;;
14292;SDS011;62290;59.420;17.842;2024-03-17T13:49:24;1.48;;;0.85;;
14292;SDS011;62290;59.420;17.842;2024-03-17T13:51:53;1.15;;;0.63;;
14292;SDS011;62290;59.420;17.842;2024-03-17T13:54:20;5.28;;;0.90;;
14292;SDS011;62290;59.420;17.842;2024-03-17T13:56:47;2.50;;;0.90;;
14292;SDS011;62290;59.420;17.842;2024-03-17T13:59:14;2.20;;;1.00;;
14292;SDS011;62290;59.420;17.842;2024-03-17T14:01:42;1.75;;;0.65;;
14292;SDS011;62290;59.420;17.842;2024-03-17T14:04:12;1.15;;;0.52;;
14292;SDS011;62290;59.420;17.842;2024-03-17T14:06:41;3.05;;;0.98;;
14292;SDS011;62290;59.420;17.842;2024-03-17T14:09:09;3.42;;;0.90;;
14292;SDS011;62290;59.420;17.842;2024-03-17T14:11:37;3.05;;;0.88;;
14292;SDS011;62290;59.420;17.842;2024-03-17T14:14:04;1.73;;;0.80;;
14292;SDS011;62290;59.420;17.842;2024-03-17T14:16:33;1.40;;;0.73;;
14292;SDS011;62290;59.420;17.842;2024-03-17T14:19:00;2.92;;;0.60;;
14292;SDS011;62290;59.420;17.842;2024-03-17T14:21:27;0.75;;;0.57;;
14292;SDS011;62290;59.420;17.842;2024-03-17T14:23:55;2.53;;;0.90;;
14292;SDS011;62290;59.420;17.842;2024-03-17T14:26:28;1.90;;;0.57;;
14292;SDS011;62290;59.420;17.842;2024-03-17T14:28:55;2.72;;;0.65;;
14292;SDS011;62290;59.420;17.842;2024-03-17T14:31:22;3.17;;;1.02;;
14292;SDS011;62290;59.420;17.842;2024-03-17T14:33:49;1.45;;;0.80;;
14292;SDS011;62290;59.420;17.842;2024-03-17T14:36:16;2.65;;;0.50;;
14292;SDS011;62290;59.420;17.842;2024-03-17T14:38:43;3.22;;;0.60;;
14292;SDS011;62290;59.420;17.842;2024-03-17T14:41:10;3.00;;;0.73;;
14292;SDS011;62290;59.420;17.842;2024-03-17T14:43:39;2.03;;;0.60;;